createdAt,value
2019-02-12T00:01:16.630Z,102168.73
2019-02-12T00:03:47.865Z,102167.78
2019-02-12T00:06:18.124Z,102176.06
2019-02-12T00:08:48.555Z,102177.75
2019-02-12T00:11:19.698Z,102172.09
2019-02-12T00:14:01.066Z,102179.64
2019-02-12T00:16:31.277Z,102181.93
2019-02-12T00:19:02.204Z,102187.48
2019-02-12T00:21:34.380Z,102185.98
2019-02-12T00:24:05.682Z,102184.31
2019-02-12T00:26:39.735Z,102180.80
2019-02-12T00:29:12.522Z,102178.14
2019-02-12T00:31:44.435Z,102173.19
2019-02-12T00:34:18.269Z,102177.60
2019-02-12T00:36:49.594Z,102170.44
2019-02-12T00:39:20.957Z,102174.24
2019-02-12T00:41:52.742Z,102181.17
2019-02-12T00:44:29.415Z,102184.48
2019-02-12T00:47:02.694Z,102180.11
2019-02-12T00:49:35.328Z,102184.31
2019-02-12T00:52:07.395Z,102181.88
2019-02-12T00:54:37.823Z,102182.37
2019-02-12T00:57:11.687Z,102184.17
2019-02-12T00:59:42.095Z,102185.01
2019-02-12T01:02:14.283Z,102190.19
2019-02-12T01:04:50.341Z,102194.20
2019-02-12T01:07:21.630Z,102196.61
2019-02-12T01:09:54.555Z,102199.41
2019-02-12T01:12:52.363Z,102188.36
2019-02-12T01:15:24.937Z,102194.27
2019-02-12T01:17:55.269Z,102209.45
2019-02-12T01:20:25.563Z,102193.94
2019-02-12T01:23:04.413Z,102196.83
2019-02-12T01:25:34.979Z,102196.20
2019-02-12T01:28:05.647Z,102195.73
2019-02-12T01:30:37.160Z,102195.98
2019-02-12T01:33:08.518Z,102203.72
2019-02-12T01:35:43.955Z,102204.19
2019-02-12T01:38:15.695Z,102197.88
2019-02-12T01:40:48.188Z,102193.33
2019-02-12T01:43:21.049Z,102204.30
2019-02-12T01:45:51.279Z,102202.52
2019-02-12T01:48:21.421Z,102197.95
2019-02-12T01:50:54.475Z,102193.87
2019-02-12T01:53:25.963Z,102213.60
2019-02-12T01:55:56.125Z,102198.03
2019-02-12T01:58:26.371Z,102197.80
2019-02-12T02:00:57.759Z,102204.19
2019-02-12T02:03:30.955Z,102224.91
2019-02-12T02:06:06.559Z,102225.45
2019-02-12T02:08:48.998Z,102219.73
2019-02-12T02:11:22.579Z,102230.78
2019-02-12T02:13:56.806Z,102220.20
2019-02-12T02:16:26.991Z,102221.91
2019-02-12T02:18:57.301Z,102218.12
2019-02-12T02:21:27.424Z,102215.72
2019-02-12T02:23:57.537Z,102226.14
2019-02-12T02:26:27.712Z,102225.64
2019-02-12T02:28:59.953Z,102234.68
2019-02-12T02:31:30.106Z,102230.71
2019-02-12T02:34:00.487Z,102238.84
2019-02-12T02:36:30.660Z,102233.25
2019-02-12T02:39:00.799Z,102219.58
2019-02-12T02:41:33.096Z,102245.83
2019-02-12T02:44:03.720Z,102238.75
2019-02-12T02:46:34.294Z,102246.04
2019-02-12T02:49:05.864Z,102244.73
2019-02-12T02:51:36.059Z,102260.64
2019-02-12T02:54:06.262Z,102246.77
2019-02-12T02:56:36.386Z,102259.56
2019-02-12T02:59:06.648Z,102257.70
2019-02-12T03:01:37.160Z,102255.95
2019-02-12T03:04:07.350Z,102269.03
2019-02-12T03:06:37.581Z,102267.16
2019-02-12T03:09:08.728Z,102278.16
2019-02-12T03:11:40.113Z,102270.84
2019-02-12T03:14:11.758Z,102267.83
2019-02-12T03:16:41.914Z,102263.70
2019-02-12T03:19:12.109Z,102263.89
2019-02-12T03:21:42.294Z,102271.03
2019-02-12T03:24:12.620Z,102280.09
2019-02-12T03:26:42.840Z,102282.27
2019-02-12T03:29:15.399Z,102281.32
2019-02-12T03:31:45.588Z,102273.45
2019-02-12T03:34:17.208Z,102281.45
2019-02-12T03:36:47.555Z,102268.13
2019-02-12T03:39:17.733Z,102275.03
2019-02-12T03:41:53.199Z,102272.59
2019-02-12T03:44:26.245Z,102267.26
2019-02-12T03:46:57.156Z,102274.77
2019-02-12T03:49:27.464Z,102279.71
2019-02-12T03:51:58.861Z,102291.81
2019-02-12T03:54:29.230Z,102287.02
2019-02-12T03:57:06.033Z,102293.95
2019-02-12T03:59:55.540Z,102299.99
2019-02-12T04:02:25.889Z,102300.61
2019-02-12T04:04:56.555Z,102302.66
2019-02-12T04:07:28.067Z,102293.17
2019-02-12T04:10:02.715Z,102305.55
2019-02-12T04:12:34.458Z,102311.58
2019-02-12T04:15:04.818Z,102315.30
2019-02-12T04:17:37.056Z,102328.89
2019-02-12T04:20:07.844Z,102317.66
2019-02-12T04:22:42.677Z,102318.48
2019-02-12T04:25:15.504Z,102325.91
2019-02-12T04:27:46.393Z,102321.50
2019-02-12T04:30:16.977Z,102327.66
2019-02-12T04:32:50.452Z,102320.36
2019-02-12T04:35:20.766Z,102328.13
2019-02-12T04:37:55.828Z,102314.11
2019-02-12T04:40:26.635Z,102324.47
2019-02-12T04:42:58.780Z,102329.67
2019-02-12T04:45:28.986Z,102327.05
2019-02-12T04:47:59.264Z,102335.92
2019-02-12T04:50:30.906Z,102332.08
2019-02-12T04:53:02.132Z,102332.60
2019-02-12T04:55:32.472Z,102340.91
2019-02-12T04:58:05.317Z,102333.91
2019-02-12T05:00:35.504Z,102344.32
2019-02-12T05:03:11.851Z,102345.50
2019-02-12T05:05:43.427Z,102349.27
2019-02-12T05:08:15.387Z,102345.19
2019-02-12T05:10:56.640Z,102351.05
2019-02-12T05:13:27.094Z,102353.03
2019-02-12T05:15:57.285Z,102355.37
2019-02-12T05:18:29.058Z,102359.30
2019-02-12T05:20:59.574Z,102354.46
2019-02-12T05:23:29.833Z,102357.47
2019-02-12T05:26:01.531Z,102351.89
2019-02-12T05:28:31.778Z,102350.74
2019-02-12T05:31:02.459Z,102359.75
2019-02-12T05:33:35.524Z,102359.53
2019-02-12T05:36:08.636Z,102351.48
2019-02-12T05:38:41.994Z,102357.16
2019-02-12T05:41:16.161Z,102370.94
2019-02-12T05:43:46.343Z,102372.11
2019-02-12T05:46:16.666Z,102375.66
2019-02-12T05:48:49.448Z,102375.16
2019-02-12T05:51:19.631Z,102369.66
2019-02-12T05:53:49.810Z,102378.40
2019-02-12T05:56:20.632Z,102379.59
2019-02-12T05:58:51.488Z,102380.02
2019-02-12T06:01:25.887Z,102385.94
2019-02-12T06:03:56.185Z,102386.80
2019-02-12T06:06:27.354Z,102390.57
2019-02-12T06:09:00.691Z,102391.66
2019-02-12T06:11:33.148Z,102395.29
2019-02-12T06:14:03.464Z,102398.52
2019-02-12T06:16:33.654Z,102393.55
2019-02-12T06:19:03.807Z,102394.72
2019-02-12T06:21:36.938Z,102397.62
2019-02-12T06:24:07.431Z,102396.17
2019-02-12T06:26:38.021Z,102402.31
2019-02-12T06:29:08.543Z,102409.93
2019-02-12T06:31:38.721Z,102411.59
2019-02-12T06:34:08.837Z,102411.14
2019-02-12T06:36:39.010Z,102415.36
2019-02-12T06:39:09.495Z,102417.54
2019-02-12T06:41:40.383Z,102413.86
2019-02-12T06:44:10.491Z,102418.05
2019-02-12T06:46:42.274Z,102425.67
2019-02-12T06:49:13.629Z,102428.38
2019-02-12T06:51:43.771Z,102422.13
2019-02-12T06:54:15.020Z,102422.56
2019-02-12T06:56:45.634Z,102425.23
2019-02-12T06:59:15.978Z,102435.20
2019-02-12T07:01:46.152Z,102440.63
2019-02-12T07:04:26.624Z,102438.73
2019-02-12T07:07:28.421Z,102442.81
2019-02-12T07:10:03.006Z,102452.13
2019-02-12T07:13:04.043Z,102453.14
2019-02-12T07:15:47.672Z,102456.59
2019-02-12T07:18:59.468Z,102455.14
2019-02-12T07:22:06.714Z,102461.02
2019-02-12T07:25:35.420Z,102457.34
2019-02-12T07:28:49.996Z,102463.17
2019-02-12T07:32:04.187Z,102472.70
2019-02-12T07:35:20.023Z,102470.28
2019-02-12T07:38:36.102Z,102475.91
2019-02-12T07:41:27.851Z,102481.00
2019-02-12T07:44:43.953Z,102481.39
2019-02-12T07:47:21.991Z,102480.00
2019-02-12T07:50:36.406Z,102486.77
2019-02-12T07:53:46.372Z,102494.33
2019-02-12T07:57:17.508Z,102494.56
2019-02-12T08:00:10.734Z,102505.28
2019-02-12T08:02:50.973Z,102503.89
2019-02-12T08:05:45.648Z,102514.73
2019-02-12T08:08:55.800Z,102510.10
2019-02-12T08:11:42.611Z,102509.54
2019-02-12T08:15:06.896Z,102531.25
2019-02-12T08:18:14.868Z,102539.48
2019-02-12T08:21:31.495Z,102540.22
2019-02-12T08:24:31.173Z,102551.72
2019-02-12T08:28:08.309Z,102565.70
2019-02-12T08:31:25.443Z,102561.84
2019-02-12T08:34:50.408Z,102565.34
2019-02-12T08:37:53.280Z,102565.73
2019-02-12T08:41:04.103Z,102571.42
2019-02-12T08:44:00.211Z,102578.55
2019-02-12T08:47:15.527Z,102577.55
2019-02-12T08:50:24.652Z,102576.34
2019-02-12T08:53:56.369Z,102587.99
2019-02-12T08:56:33.083Z,102590.70
2019-02-12T08:59:42.837Z,102591.88
2019-02-12T09:03:03.253Z,102587.98
2019-02-12T09:06:07.050Z,102596.48
2019-02-12T09:09:00.716Z,102608.03
2019-02-12T09:12:30.538Z,102604.97
2019-02-12T09:15:29.557Z,102599.57
2019-02-12T09:18:23.181Z,102617.18
2019-02-12T09:21:31.202Z,102603.91
2019-02-12T09:24:46.516Z,102610.84
2019-02-12T09:27:42.157Z,102612.09
2019-02-12T09:30:53.030Z,102610.92
2019-02-12T09:34:02.184Z,102595.69
2019-02-12T09:37:07.385Z,102616.22
2019-02-12T09:40:18.834Z,102617.25
2019-02-12T09:43:28.502Z,102615.78
2019-02-12T09:46:27.820Z,102614.23
2019-02-12T09:49:46.789Z,102624.95
2019-02-12T09:52:56.149Z,102615.42
2019-02-12T09:55:42.479Z,102627.38
2019-02-12T09:58:30.199Z,102635.95
2019-02-12T10:01:10.743Z,102626.30
2019-02-12T10:04:08.237Z,102635.04
2019-02-12T10:07:24.262Z,102626.87
2019-02-12T10:10:20.285Z,102644.95
2019-02-12T10:13:22.209Z,102645.00
2019-02-12T10:16:09.646Z,102655.19
2019-02-12T10:19:11.471Z,102659.23
2019-02-12T10:22:06.899Z,102653.61
2019-02-12T10:24:55.137Z,102656.95
2019-02-12T10:28:08.940Z,102656.95
2019-02-12T10:31:14.562Z,102658.42
2019-02-12T10:33:47.172Z,102656.67
2019-02-12T10:36:17.980Z,102658.70
2019-02-12T10:38:48.679Z,102659.12
2019-02-12T10:41:20.933Z,102655.91
2019-02-12T10:43:51.270Z,102668.20
2019-02-12T10:46:21.375Z,102665.30
2019-02-12T10:48:53.905Z,102664.60
2019-02-12T10:51:24.110Z,102670.61
2019-02-12T10:53:54.323Z,102669.84
2019-02-12T10:56:24.604Z,102661.36
2019-02-12T10:58:56.440Z,102663.40
2019-02-12T11:01:27.198Z,102659.75
2019-02-12T11:03:58.907Z,102658.87
2019-02-12T11:06:29.308Z,102664.77
2019-02-12T11:08:59.602Z,102665.98
2019-02-12T11:11:34.175Z,102671.89
2019-02-12T11:14:06.121Z,102666.32
2019-02-12T11:16:36.668Z,102660.48
2019-02-12T11:19:06.887Z,102667.48
2019-02-12T11:21:37.018Z,102670.59
2019-02-12T11:24:07.468Z,102667.01
2019-02-12T11:26:47.936Z,102669.09
2019-02-12T11:29:24.382Z,102660.66
2019-02-12T11:31:59.050Z,102663.44
2019-02-12T11:34:32.000Z,102665.45
2019-02-12T11:37:03.448Z,102667.18
2019-02-12T11:39:36.717Z,102664.95
2019-02-12T11:42:10.432Z,102662.95
2019-02-12T11:44:45.197Z,102665.35
2019-02-12T11:47:27.611Z,102663.25
2019-02-12T11:50:05.436Z,102661.23
2019-02-12T11:52:36.220Z,102660.09
2019-02-12T11:55:07.296Z,102659.20
2019-02-12T11:57:37.674Z,102654.75
2019-02-12T12:00:12.555Z,102655.27
2019-02-12T12:02:47.790Z,102651.69
2019-02-12T12:05:19.465Z,102656.66
2019-02-12T12:07:49.964Z,102659.11
2019-02-12T12:10:23.010Z,102656.43
2019-02-12T12:12:53.226Z,102656.60
2019-02-12T12:15:23.422Z,102648.91
2019-02-12T12:17:54.296Z,102662.91
2019-02-12T12:20:24.506Z,102658.55
2019-02-12T12:22:54.670Z,102657.37
2019-02-12T12:25:26.040Z,102652.13
2019-02-12T12:27:56.200Z,102654.28
2019-02-12T12:30:27.779Z,102652.63
2019-02-12T12:32:58.366Z,102648.41
2019-02-12T12:35:29.341Z,102651.86
2019-02-12T12:37:59.902Z,102659.27
2019-02-12T12:40:30.240Z,102651.35
2019-02-12T12:43:00.645Z,102656.63
2019-02-12T12:45:32.688Z,102659.86
2019-02-12T12:48:05.633Z,102655.53
2019-02-12T12:50:37.069Z,102658.17
2019-02-12T12:53:09.378Z,102659.08
2019-02-12T12:55:40.669Z,102665.58
2019-02-12T12:58:11.212Z,102665.67
2019-02-12T13:00:44.889Z,102651.41
2019-02-12T13:03:15.231Z,102661.48
2019-02-12T13:05:45.549Z,102668.25
2019-02-12T13:08:16.816Z,102661.56
2019-02-12T13:10:47.339Z,102663.90
2019-02-12T13:13:18.174Z,102666.16
2019-02-12T13:15:49.647Z,102660.30
2019-02-12T13:18:33.930Z,102669.52
2019-02-12T13:21:13.069Z,102671.49
2019-02-12T13:23:42.674Z,102677.91
2019-02-12T13:26:17.137Z,102678.77
2019-02-12T13:28:47.741Z,102683.56
2019-02-12T13:31:17.941Z,102684.09
2019-02-12T13:33:49.228Z,102685.16
2019-02-12T13:36:19.433Z,102690.29
2019-02-12T13:38:49.617Z,102691.88
2019-02-12T13:41:50.727Z,102690.44
2019-02-12T13:47:17.235Z,102698.09
2019-02-12T13:49:47.664Z,102697.88
2019-02-12T13:52:18.277Z,102702.92
2019-02-12T13:54:50.140Z,102707.35
2019-02-12T13:57:20.617Z,102709.64
2019-02-12T13:59:52.317Z,102708.30
2019-02-12T14:02:52.217Z,102707.13
2019-02-12T14:05:22.560Z,102709.33
2019-02-12T14:07:55.116Z,102715.75
2019-02-12T14:10:25.292Z,102712.94
2019-02-12T14:12:55.559Z,102717.53
2019-02-12T14:15:25.713Z,102716.05
2019-02-12T14:17:58.029Z,102718.13
2019-02-12T14:20:28.209Z,102717.69
2019-02-12T14:22:58.554Z,102726.70
2019-02-12T14:25:31.082Z,102720.23
2019-02-12T14:28:01.437Z,102725.03
2019-02-12T14:30:32.779Z,102725.41
2019-02-12T14:33:03.719Z,102728.36
2019-02-12T14:35:35.549Z,102725.16
2019-02-12T14:38:06.083Z,102719.70
2019-02-12T14:40:36.266Z,102723.78
2019-02-12T14:43:13.883Z,102731.50
2019-02-12T14:45:55.840Z,102722.17
2019-02-12T14:48:26.366Z,102727.25
2019-02-12T14:50:57.369Z,102725.81
2019-02-12T14:53:31.111Z,102730.42
2019-02-12T14:56:01.235Z,102721.70
2019-02-12T14:58:34.393Z,102730.20
2019-02-12T15:01:05.850Z,102733.71
2019-02-12T15:03:36.098Z,102725.90
2019-02-12T15:06:06.274Z,102720.07
2019-02-12T15:08:36.724Z,102722.77
2019-02-12T15:11:08.567Z,102724.97
2019-02-12T15:13:38.910Z,102724.97
2019-02-12T15:16:09.514Z,102720.48
2019-02-12T15:18:39.764Z,102723.09
2019-02-12T15:21:09.940Z,102721.08
2019-02-12T15:23:40.201Z,102711.34
2019-02-12T15:26:10.488Z,102709.80
2019-02-12T15:28:40.712Z,102706.50
2019-02-12T15:31:11.484Z,102706.16
2019-02-12T15:33:49.928Z,102702.10
2019-02-12T15:36:25.073Z,102711.31
2019-02-12T15:38:58.369Z,102718.98
2019-02-12T15:41:29.618Z,102725.44
2019-02-12T15:44:05.662Z,102730.19
2019-02-12T15:46:37.914Z,102734.80
2019-02-12T15:49:08.358Z,102735.30
2019-02-12T15:51:40.256Z,102751.23
2019-02-12T15:54:10.627Z,102748.02
2019-02-12T15:56:40.856Z,102747.88
2019-02-12T15:59:12.314Z,102750.85
2019-02-12T16:01:42.988Z,102746.62
2019-02-12T16:04:13.280Z,102748.02
2019-02-12T16:06:47.702Z,102748.17
2019-02-12T16:09:18.230Z,102748.01
2019-02-12T16:11:50.505Z,102751.67
2019-02-12T16:14:21.485Z,102757.56
2019-02-12T16:19:45.209Z,102756.90
2019-02-12T16:22:16.448Z,102754.16
2019-02-12T16:24:46.720Z,102759.86
2019-02-12T16:27:17.071Z,102758.56
2019-02-12T16:29:48.497Z,102763.48
2019-02-12T16:32:18.819Z,102761.96
2019-02-12T16:34:53.582Z,102759.86
2019-02-12T16:37:25.659Z,102762.23
2019-02-12T16:39:56.319Z,102766.11
2019-02-12T16:42:49.205Z,102764.35
2019-02-12T16:45:23.219Z,102763.66
2019-02-12T16:47:55.161Z,102770.80
2019-02-12T16:50:48.441Z,102772.56
2019-02-12T16:53:20.543Z,102762.70
2019-02-12T16:55:50.920Z,102763.40
2019-02-12T16:58:22.657Z,102766.20
2019-02-12T17:00:53.059Z,102773.30
2019-02-12T17:03:24.463Z,102778.57
2019-02-12T17:05:55.426Z,102776.38
2019-02-12T17:08:26.547Z,102783.60
2019-02-12T17:10:56.981Z,102775.98
2019-02-12T17:13:27.398Z,102773.19
2019-02-12T17:15:59.914Z,102769.28
2019-02-12T17:18:31.640Z,102774.22
2019-02-12T17:21:07.359Z,102778.97
2019-02-12T17:23:37.714Z,102775.72
2019-02-12T17:26:16.125Z,102779.13
2019-02-12T17:28:41.747Z,102776.57
2019-02-12T17:31:12.420Z,102768.95
2019-02-12T17:33:44.027Z,102778.25
2019-02-12T17:36:17.147Z,102768.86
2019-02-12T17:38:47.467Z,102774.80
2019-02-12T17:41:19.121Z,102780.42
2019-02-12T17:43:50.479Z,102773.88
2019-02-12T17:46:25.454Z,102778.27
2019-02-12T17:49:01.922Z,102783.63
2019-02-12T17:51:32.710Z,102782.40
2019-02-12T17:54:21.161Z,102784.01
2019-02-12T17:56:52.859Z,102783.61
2019-02-12T17:59:26.188Z,102779.06
2019-02-12T18:01:56.885Z,102785.33
2019-02-12T18:04:31.125Z,102786.34
2019-02-12T18:07:01.543Z,102790.08
2019-02-12T18:09:31.806Z,102787.75
2019-02-12T18:12:02.015Z,102779.55
2019-02-12T18:14:33.769Z,102789.33
2019-02-12T18:17:04.051Z,102785.78
2019-02-12T18:19:34.298Z,102784.90
2019-02-12T18:22:05.566Z,102785.03
2019-02-12T18:24:35.864Z,102785.56
2019-02-12T18:27:09.297Z,102790.21
2019-02-12T18:29:39.685Z,102786.09
2019-02-12T18:32:10.121Z,102780.88
2019-02-12T18:34:40.843Z,102777.48
2019-02-12T18:37:11.384Z,102781.52
2019-02-12T18:39:41.772Z,102776.17
2019-02-12T18:42:12.384Z,102768.16
2019-02-12T18:44:42.808Z,102769.91
2019-02-12T18:47:13.510Z,102767.14
2019-02-12T18:49:54.672Z,102771.70
2019-02-12T18:52:28.790Z,102778.41
2019-02-12T18:54:59.082Z,102771.84
2019-02-12T18:57:31.207Z,102777.75
2019-02-12T19:00:01.874Z,102781.65
2019-02-12T19:02:36.535Z,102785.38
2019-02-12T19:05:07.435Z,102787.48
2019-02-12T19:07:39.236Z,102784.72
2019-02-12T19:10:11.908Z,102792.27
2019-02-12T19:12:44.562Z,102783.48
2019-02-12T19:15:20.413Z,102779.16
2019-02-12T19:18:58.868Z,102785.95
2019-02-12T19:21:31.470Z,102775.60
2019-02-12T19:24:07.869Z,102781.79
2019-02-12T19:26:49.724Z,102782.05
2019-02-12T19:29:41.788Z,102780.86
2019-02-12T19:32:13.343Z,102789.33
2019-02-12T19:34:47.532Z,102788.84
2019-02-12T19:37:18.252Z,102783.23
2019-02-12T19:39:49.291Z,102791.25
2019-02-12T19:42:19.773Z,102780.61
2019-02-12T19:44:51.589Z,102783.67
2019-02-12T19:47:22.457Z,102798.62
2019-02-12T19:49:58.896Z,102798.41
2019-02-12T19:52:59.266Z,102798.88
2019-02-12T19:55:25.145Z,102807.34
2019-02-12T19:57:55.444Z,102805.50
2019-02-12T20:00:25.867Z,102810.67
2019-02-12T20:02:56.176Z,102802.39
2019-02-12T20:05:31.286Z,102804.09
2019-02-12T20:08:01.549Z,102803.43
2019-02-12T20:10:31.905Z,102805.63
2019-02-12T20:13:02.435Z,102808.06
2019-02-12T20:15:34.866Z,102803.48
2019-02-12T20:18:05.896Z,102801.98
2019-02-12T20:20:37.996Z,102797.64
2019-02-12T20:23:12.876Z,102800.10
2019-02-12T20:25:54.178Z,102790.81
2019-02-12T20:28:24.592Z,102789.20
2019-02-12T20:30:54.861Z,102789.84
2019-02-12T20:33:25.026Z,102784.94
2019-02-12T20:35:56.866Z,102790.81
2019-02-12T20:38:27.427Z,102791.07
2019-02-12T20:41:00.335Z,102788.34
2019-02-12T20:43:32.678Z,102788.92
2019-02-12T20:46:06.930Z,102788.97
2019-02-12T20:48:49.059Z,102788.97
2019-02-12T20:51:19.645Z,102785.72
2019-02-12T20:53:51.239Z,102778.97
2019-02-12T20:56:38.679Z,102788.51
2019-02-12T20:59:22.539Z,102785.23
2019-02-12T21:01:52.841Z,102792.06
2019-02-12T21:04:23.090Z,102799.05
2019-02-12T21:07:03.606Z,102792.57
2019-02-12T21:09:29.018Z,102795.73
2019-02-12T21:11:59.274Z,102793.31
2019-02-12T21:14:33.544Z,102790.90
2019-02-12T21:17:04.708Z,102783.02
2019-02-12T21:19:34.985Z,102792.40
2019-02-12T21:22:06.327Z,102790.06
2019-02-12T21:24:36.912Z,102791.21
2019-02-12T21:27:07.196Z,102801.25
2019-02-12T21:29:40.447Z,102797.35
2019-02-12T21:32:10.966Z,102792.18
2019-02-12T21:34:41.333Z,102800.34
2019-02-12T21:37:11.756Z,102802.27
2019-02-12T21:39:44.481Z,102807.61
2019-02-12T21:42:17.880Z,102801.66
2019-02-12T21:44:48.365Z,102804.33
2019-02-12T21:47:18.963Z,102806.00
2019-02-12T21:49:50.822Z,102797.84
2019-02-12T21:52:21.057Z,102803.36
2019-02-12T21:54:51.365Z,102801.52
2019-02-12T21:57:21.880Z,102806.03
2019-02-12T21:59:55.344Z,102796.91
2019-02-12T22:02:25.835Z,102810.86
2019-02-12T22:04:58.404Z,102806.44
2019-02-12T22:07:28.613Z,102803.45
2019-02-12T22:09:59.293Z,102804.38
2019-02-12T22:12:29.627Z,102803.88
2019-02-12T22:14:59.943Z,102811.83
2019-02-12T22:17:30.246Z,102826.65
2019-02-12T22:20:00.945Z,102818.48
2019-02-12T22:22:32.070Z,102823.09
2019-02-12T22:25:02.347Z,102825.25
2019-02-12T22:27:40.047Z,102835.59
2019-02-12T22:30:09.625Z,102830.16
2019-02-12T22:32:40.723Z,102827.52
2019-02-12T22:35:11.118Z,102841.22
2019-02-12T22:37:42.284Z,102833.27
2019-02-12T22:40:18.067Z,102826.30
2019-02-12T22:42:48.372Z,102828.66
2019-02-12T22:45:19.788Z,102835.98
2019-02-12T22:47:50.339Z,102840.11
2019-02-12T22:50:21.033Z,102842.38
2019-02-12T22:52:51.452Z,102834.40
2019-02-12T22:55:23.140Z,102832.65
2019-02-12T22:57:58.137Z,102830.72
2019-02-12T23:00:54.306Z,102829.67
2019-02-12T23:03:26.633Z,102824.09
2019-02-12T23:05:56.958Z,102839.23
2019-02-12T23:08:28.882Z,102843.70
2019-02-12T23:10:59.442Z,102831.77
2019-02-12T23:13:29.707Z,102829.03
2019-02-12T23:16:00.044Z,102821.61
2019-02-12T23:18:30.760Z,102811.45
2019-02-12T23:21:01.060Z,102816.16
2019-02-12T23:23:35.295Z,102807.30
2019-02-12T23:26:06.450Z,102805.98
2019-02-12T23:28:36.657Z,102801.87
2019-02-12T23:31:06.806Z,102796.05
2019-02-12T23:33:37.136Z,102803.47
2019-02-12T23:36:07.460Z,102800.95
2019-02-12T23:38:37.725Z,102803.63
2019-02-12T23:41:12.046Z,102810.09
2019-02-12T23:43:42.596Z,102815.88
2019-02-12T23:46:13.586Z,102818.23
2019-02-12T23:48:44.682Z,102827.17
2019-02-12T23:51:14.827Z,102827.45
2019-02-12T23:53:47.272Z,102830.48
2019-02-12T23:56:18.172Z,102828.86
2019-02-12T23:58:48.436Z,102834.69
